createdAt,value
2023-05-19T00:04:02.597Z,7.00
2023-05-19T00:09:08.350Z,6.97
2023-05-19T00:14:12.097Z,6.96
2023-05-19T00:19:17.081Z,6.93
2023-05-19T00:24:19.910Z,6.92
2023-05-19T00:29:22.699Z,6.90
2023-05-19T00:34:25.626Z,6.89
2023-05-19T00:39:28.360Z,6.87
2023-05-19T00:44:31.486Z,6.88
2023-05-19T00:49:35.897Z,6.95
2023-05-19T00:54:38.695Z,7.06
2023-05-19T00:59:41.486Z,7.16
2023-05-19T01:04:45.108Z,7.23
2023-05-19T01:09:47.873Z,7.25
2023-05-19T01:14:51.201Z,7.27
2023-05-19T01:20:08.293Z,7.27
2023-05-19T01:25:29.905Z,7.27
2023-05-19T01:30:40.879Z,7.28
2023-05-19T01:35:44.215Z,7.29
2023-05-19T01:40:49.622Z,7.31
2023-05-19T01:45:53.403Z,7.33
2023-05-19T01:50:57.414Z,7.40
2023-05-19T01:56:00.523Z,7.48
2023-05-19T02:01:16.764Z,7.52
2023-05-19T02:06:40.848Z,7.54
2023-05-19T02:11:54.824Z,7.53
2023-05-19T02:16:59.351Z,7.50
2023-05-19T02:22:02.136Z,7.45
2023-05-19T02:27:05.387Z,7.41
2023-05-19T02:32:08.297Z,7.37
2023-05-19T02:37:15.536Z,7.33
2023-05-19T02:42:18.395Z,7.29
2023-05-19T02:47:21.234Z,7.26
2023-05-19T02:52:23.968Z,7.25
2023-05-19T02:57:29.551Z,7.25
2023-05-19T03:02:34.254Z,7.33
2023-05-19T03:07:37.376Z,7.41
2023-05-19T03:12:40.069Z,7.48
2023-05-19T03:17:42.934Z,7.54
2023-05-19T03:22:45.883Z,7.57
2023-05-19T03:27:48.647Z,7.61
2023-05-19T03:32:52.268Z,7.65
2023-05-19T03:37:55.313Z,7.72
2023-05-19T03:42:58.133Z,7.80
2023-05-19T03:48:01.071Z,7.90
2023-05-19T03:53:03.872Z,8.02
2023-05-19T03:58:06.691Z,8.15
2023-05-19T04:03:09.604Z,8.34
2023-05-19T04:08:12.502Z,8.51
2023-05-19T04:13:15.328Z,8.63
2023-05-19T04:18:18.129Z,8.67
2023-05-19T04:23:20.832Z,8.70
2023-05-19T04:28:24.077Z,8.77
2023-05-19T04:33:29.332Z,8.84
2023-05-19T04:38:32.057Z,8.95
2023-05-19T04:43:34.803Z,9.07
2023-05-19T04:48:42.815Z,9.22
2023-05-19T04:53:45.937Z,9.38
2023-05-19T04:58:49.474Z,9.54
2023-05-19T05:03:55.428Z,9.63
2023-05-19T05:09:00.129Z,9.76
2023-05-19T05:14:03.180Z,9.89
2023-05-19T05:19:06.227Z,10.01
2023-05-19T05:24:09.563Z,10.17
2023-05-19T05:29:12.370Z,10.32
2023-05-19T05:34:15.472Z,10.43
2023-05-19T05:39:18.167Z,10.60
2023-05-19T05:44:20.937Z,10.88
2023-05-19T05:49:24.076Z,11.12
2023-05-19T05:54:26.999Z,11.29
2023-05-19T05:59:29.794Z,11.41
2023-05-19T06:04:32.955Z,11.60
2023-05-19T06:09:37.605Z,11.81
2023-05-19T06:14:40.565Z,11.97
2023-05-19T06:19:43.428Z,12.11
2023-05-19T06:24:46.516Z,12.31
2023-05-19T06:29:49.275Z,12.54
2023-05-19T06:34:54.770Z,12.80
2023-05-19T06:39:59.034Z,13.12
2023-05-19T06:45:03.276Z,13.44
2023-05-19T06:50:07.571Z,13.86
2023-05-19T06:55:11.987Z,14.25
2023-05-19T07:00:18.835Z,14.50
2023-05-19T07:05:23.720Z,14.71
2023-05-19T07:10:26.623Z,14.95
2023-05-19T07:15:30.408Z,15.15
2023-05-19T07:20:34.417Z,15.35
2023-05-19T07:25:37.298Z,15.49
2023-05-19T07:30:40.121Z,15.65
2023-05-19T07:35:43.094Z,15.87
2023-05-19T07:40:46.291Z,16.10
2023-05-19T07:45:49.316Z,16.22
2023-05-19T07:50:53.086Z,16.41
2023-05-19T07:55:58.356Z,16.62
2023-05-19T08:01:01.722Z,16.80
2023-05-19T08:06:04.802Z,17.03
2023-05-19T08:11:07.729Z,17.21
2023-05-19T08:16:10.804Z,17.36
2023-05-19T08:21:13.666Z,17.56
2023-05-19T08:26:20.104Z,17.56
2023-05-19T08:31:23.507Z,17.70
2023-05-19T08:36:26.412Z,17.76
2023-05-19T08:41:29.188Z,17.83
2023-05-19T08:46:32.310Z,17.87
2023-05-19T08:51:48.512Z,17.79
2023-05-19T08:56:51.629Z,17.67
2023-05-19T09:01:55.670Z,17.62
2023-05-19T09:07:02.934Z,17.51
2023-05-19T09:12:06.109Z,17.53
2023-05-19T09:17:09.857Z,17.87
2023-05-19T09:22:16.162Z,18.12
2023-05-19T09:27:25.215Z,18.18
2023-05-19T09:32:28.170Z,18.01
2023-05-19T09:37:32.466Z,17.79
2023-05-19T09:42:39.221Z,17.64
2023-05-19T09:47:42.844Z,17.62
2023-05-19T09:52:45.746Z,17.60
2023-05-19T09:57:48.649Z,17.69
2023-05-19T10:02:51.639Z,17.80
2023-05-19T10:07:55.376Z,17.94
2023-05-19T10:12:59.208Z,18.22
2023-05-19T10:18:03.236Z,18.24
2023-05-19T10:23:06.166Z,17.94
2023-05-19T10:28:13.959Z,17.59
2023-05-19T10:33:29.029Z,17.34
2023-05-19T10:38:59.176Z,17.13
2023-05-19T10:44:41.173Z,16.78
2023-05-19T10:49:45.596Z,16.60
2023-05-19T10:54:48.697Z,16.61
2023-05-19T10:59:51.670Z,16.53
2023-05-19T11:04:58.447Z,16.47
2023-05-19T11:10:07.092Z,16.31
2023-05-19T11:15:14.886Z,15.99
2023-05-19T11:20:28.555Z,15.87
2023-05-19T11:25:48.433Z,15.91
2023-05-19T11:30:53.871Z,15.97
2023-05-19T11:36:00.072Z,16.02
2023-05-19T11:41:03.926Z,16.01
2023-05-19T11:46:07.835Z,15.94
2023-05-19T11:51:10.655Z,15.79
2023-05-19T11:56:15.221Z,15.71
2023-05-19T12:01:18.000Z,15.61
2023-05-19T12:06:20.914Z,15.51
2023-05-19T12:11:24.277Z,15.33
2023-05-19T12:16:36.330Z,15.17
2023-05-19T12:21:39.529Z,14.98
2023-05-19T12:26:42.452Z,14.80
2023-05-19T12:31:46.859Z,14.48
2023-05-19T12:36:49.847Z,14.28
2023-05-19T12:41:52.597Z,14.14
2023-05-19T12:46:57.606Z,13.94
2023-05-19T12:52:12.902Z,13.85
2023-05-19T12:57:27.870Z,13.99
2023-05-19T13:02:30.983Z,14.10
2023-05-19T13:07:35.758Z,13.88
2023-05-19T13:12:38.870Z,13.69
2023-05-19T13:17:41.636Z,13.56
2023-05-19T13:22:44.770Z,13.33
2023-05-19T13:27:48.370Z,13.26
2023-05-19T13:32:52.724Z,13.48
2023-05-19T13:37:55.607Z,13.52
2023-05-19T13:42:58.368Z,13.41
2023-05-19T13:48:01.429Z,13.28
2023-05-19T13:53:04.513Z,13.20
2023-05-19T13:58:07.871Z,12.95
2023-05-19T14:03:10.693Z,12.66
2023-05-19T14:08:13.544Z,12.44
2023-05-19T14:13:31.470Z,12.25
2023-05-19T14:18:37.181Z,12.17
2023-05-19T14:23:40.073Z,12.29
2023-05-19T14:28:42.844Z,12.67
2023-05-19T14:33:45.680Z,13.03
2023-05-19T14:38:48.526Z,13.35
2023-05-19T14:43:51.543Z,13.52
2023-05-19T14:48:54.379Z,13.64
2023-05-19T14:53:57.228Z,13.88
2023-05-19T14:58:59.946Z,14.08
2023-05-19T15:04:02.756Z,13.94
2023-05-19T15:09:05.548Z,13.78
2023-05-19T15:14:08.218Z,13.63
2023-05-19T15:19:10.952Z,13.41
2023-05-19T15:24:13.713Z,13.22
2023-05-19T15:29:16.483Z,13.17
2023-05-19T15:34:20.411Z,13.29
2023-05-19T15:39:23.172Z,13.58
2023-05-19T15:44:27.618Z,13.83
2023-05-19T15:49:31.719Z,13.88
2023-05-19T15:54:34.479Z,13.77
2023-05-19T15:59:37.234Z,13.53
2023-05-19T16:04:39.943Z,13.35
2023-05-19T16:09:42.964Z,13.18
2023-05-19T16:14:45.805Z,13.03
2023-05-19T16:19:48.608Z,12.93
2023-05-19T16:24:52.494Z,12.87
2023-05-19T16:29:55.585Z,12.81
2023-05-19T16:34:58.357Z,12.72
2023-05-19T16:40:01.202Z,12.66
2023-05-19T16:45:04.102Z,12.60
2023-05-19T16:50:07.736Z,12.55
2023-05-19T16:55:11.197Z,12.46
2023-05-19T17:00:14.965Z,12.36
2023-05-19T17:05:17.919Z,12.31
2023-05-19T17:10:21.207Z,12.25
2023-05-19T17:15:24.205Z,12.16
2023-05-19T17:20:26.853Z,12.09
2023-05-19T17:25:29.640Z,12.00
2023-05-19T17:30:32.999Z,11.93
2023-05-19T17:35:35.944Z,11.88
2023-05-19T17:40:40.086Z,11.86
2023-05-19T17:45:44.786Z,11.85
2023-05-19T17:50:48.163Z,11.79
2023-05-19T17:55:52.878Z,11.74
2023-05-19T18:00:56.087Z,11.69
2023-05-19T18:05:59.027Z,11.64
2023-05-19T18:11:02.635Z,11.62
2023-05-19T18:16:05.546Z,11.60
2023-05-19T18:21:14.124Z,11.56
2023-05-19T18:26:16.902Z,11.50
2023-05-19T18:31:20.426Z,11.44
2023-05-19T18:36:23.615Z,11.39
2023-05-19T18:41:26.536Z,11.35
2023-05-19T18:46:30.096Z,11.33
2023-05-19T18:51:36.182Z,11.31
2023-05-19T18:56:39.172Z,11.27
2023-05-19T19:01:42.969Z,11.22
2023-05-19T19:06:47.886Z,11.17
2023-05-19T19:11:50.674Z,11.12
2023-05-19T19:16:53.508Z,11.15
2023-05-19T19:21:56.433Z,11.18
2023-05-19T19:26:59.165Z,11.16
2023-05-19T19:32:02.183Z,11.13
2023-05-19T19:37:04.933Z,11.07
2023-05-19T19:42:07.733Z,11.00
2023-05-19T19:47:10.487Z,10.97
2023-05-19T19:52:13.251Z,10.97
2023-05-19T19:57:17.410Z,11.01
2023-05-19T20:02:20.255Z,11.02
2023-05-19T20:07:23.404Z,10.99
2023-05-19T20:12:26.602Z,10.95
2023-05-19T20:17:29.406Z,10.91
2023-05-19T20:22:32.258Z,10.91
2023-05-19T20:27:35.056Z,10.91
2023-05-19T20:32:37.880Z,10.88
2023-05-19T20:37:41.047Z,10.86
2023-05-19T20:42:43.718Z,10.81
2023-05-19T20:47:46.778Z,10.80
2023-05-19T20:52:49.501Z,10.80
2023-05-19T20:57:52.329Z,10.78
2023-05-19T21:02:55.146Z,10.75
2023-05-19T21:07:57.940Z,10.73
2023-05-19T21:13:00.832Z,10.72
2023-05-19T21:18:03.729Z,10.70
2023-05-19T21:23:06.616Z,10.66
2023-05-19T21:28:09.382Z,10.66
2023-05-19T21:33:12.324Z,10.64
2023-05-19T21:38:23.508Z,10.61
2023-05-19T21:43:27.290Z,10.60
2023-05-19T21:48:30.067Z,10.62
2023-05-19T21:53:32.969Z,10.65
2023-05-19T21:58:36.035Z,10.63
2023-05-19T22:03:38.852Z,10.62
2023-05-19T22:08:41.897Z,10.59
2023-05-19T22:13:44.695Z,10.61
2023-05-19T22:18:47.499Z,10.63
2023-05-19T22:23:52.139Z,10.63
2023-05-19T22:28:55.568Z,10.63
2023-05-19T22:33:58.315Z,10.60
2023-05-19T22:39:01.112Z,10.57
2023-05-19T22:44:03.928Z,10.60
2023-05-19T22:49:06.708Z,10.64
2023-05-19T22:54:10.511Z,10.66
2023-05-19T22:59:13.281Z,10.67
2023-05-19T23:04:16.060Z,10.65
2023-05-19T23:09:19.134Z,10.62
2023-05-19T23:14:22.117Z,10.62
2023-05-19T23:19:24.964Z,10.64
2023-05-19T23:24:27.765Z,10.63
2023-05-19T23:29:30.498Z,10.60
2023-05-19T23:34:33.360Z,10.57
2023-05-19T23:39:38.281Z,10.55
2023-05-19T23:44:41.302Z,10.56
2023-05-19T23:49:43.965Z,10.61
2023-05-19T23:54:46.692Z,10.63
2023-05-19T23:59:49.447Z,10.62
